Time;durP1;ratioP1;P1;durP2;ratioP2;P2;SDS_P1;SDS_P2;PMS_P1;PMS_P2;Temp;Humidity;BMP_temperature;BMP_pressure;BME280_temperature;BME280_humidity;BME280_pressure;Samples;Min_cycle;Max_cycle;Signal;HPM_P1;HPM_P2
2024/01/03 00:01:21;;;;;;;23.67;21.00;;;;;;;;;;5013317;28;20034;-68
2024/01/03 00:03:47;;;;;;;28.73;22.87;;;;;;;;;;5013333;28;20314;-68
2024/01/03 00:06:14;;;;;;;27.27;22.70;;;;;;;;;;5012198;28;20101;-68
2024/01/03 00:08:40;;;;;;;24.27;21.40;;;;;;;;;;5013349;28;20057;-68
2024/01/03 00:11:07;;;;;;;26.07;20.60;;;;;;;;;;5013259;28;20113;-68
2024/01/03 00:13:36;;;;;;;26.57;20.77;;;;;;;;;;5013286;28;20364;-69
2024/01/03 00:16:06;;;;;;;27.90;22.03;;;;;;;;;;5013216;28;20025;-68
2024/01/03 00:18:35;;;;;;;29.60;21.67;;;;;;;;;;5009721;28;20377;-68
2024/01/03 00:21:01;;;;;;;25.47;20.83;;;;;;;;;;5014638;28;20021;-68
2024/01/03 00:23:46;;;;;;;25.53;21.63;;;;;;;;;;5014963;28;20041;-68
2024/01/03 00:26:13;;;;;;;28.07;22.53;;;;;;;;;;5021311;28;20049;-67
2024/01/03 00:28:39;;;;;;;28.43;20.90;;;;;;;;;;5019572;28;20528;-68
2024/01/03 00:31:06;;;;;;;24.07;21.40;;;;;;;;;;5012329;28;20419;-69
2024/01/03 00:33:34;;;;;;;24.08;19.92;;;;;;;;;;5004064;28;20375;-68
2024/01/03 00:36:00;;;;;;;23.23;18.47;;;;;;;;;;5012773;28;20277;-68
2024/01/03 00:38:26;;;;;;;23.88;19.17;;;;;;;;;;5012485;28;20054;-68
2024/01/03 00:40:57;;;;;;;23.97;18.87;;;;;;;;;;5012740;28;20041;-68
2024/01/03 00:43:23;;;;;;;23.83;19.20;;;;;;;;;;5012506;28;20069;-68
2024/01/03 00:45:50;;;;;;;25.33;20.40;;;;;;;;;;5012441;28;20030;-68
2024/01/03 00:48:16;;;;;;;25.07;19.73;;;;;;;;;;5012639;28;20456;-68
2024/01/03 00:50:42;;;;;;;26.77;19.40;;;;;;;;;;5012503;28;20029;-68
2024/01/03 00:53:09;;;;;;;22.90;19.30;;;;;;;;;;5012503;28;20034;-68
2024/01/03 00:55:35;;;;;;;21.67;18.50;;;;;;;;;;5026289;28;20030;-69
2024/01/03 00:58:01;;;;;;;25.20;18.03;;;;;;;;;;5012718;28;20092;-68
2024/01/03 01:00:28;;;;;;;22.87;18.23;;;;;;;;;;5012201;28;20068;-68
2024/01/03 01:02:54;;;;;;;23.17;19.00;;;;;;;;;;5012636;28;20100;-69
2024/01/03 01:05:20;;;;;;;25.15;17.92;;;;;;;;;;5012522;28;20034;-68
2024/01/03 01:07:46;;;;;;;21.47;18.17;;;;;;;;;;5011225;28;20034;-68
2024/01/03 01:10:12;;;;;;;21.17;16.80;;;;;;;;;;5012428;28;20420;-68
2024/01/03 01:12:38;;;;;;;22.70;18.20;;;;;;;;;;5012131;28;20034;-68
2024/01/03 01:15:04;;;;;;;20.50;17.23;;;;;;;;;;5012032;28;20117;-68
2024/01/03 01:17:30;;;;;;;20.73;17.00;;;;;;;;;;5012169;28;20083;-69
2024/01/03 01:19:56;;;;;;;21.73;17.43;;;;;;;;;;5012566;28;20056;-68
2024/01/03 01:22:23;;;;;;;22.75;18.10;;;;;;;;;;5011989;28;20460;-69
2024/01/03 01:24:49;;;;;;;20.80;17.83;;;;;;;;;;5010724;28;20108;-68
2024/01/03 01:27:16;;;;;;;21.60;17.43;;;;;;;;;;5012317;28;20030;-68
2024/01/03 01:29:42;;;;;;;18.98;16.83;;;;;;;;;;5011876;28;20376;-68
2024/01/03 01:32:08;;;;;;;18.48;16.45;;;;;;;;;;5012208;28;20026;-69
2024/01/03 01:34:34;;;;;;;22.83;18.53;;;;;;;;;;5010407;28;20438;-69
2024/01/03 01:37:00;;;;;;;20.25;17.92;;;;;;;;;;5012073;28;20105;-68
2024/01/03 01:39:26;;;;;;;22.03;17.87;;;;;;;;;;5011780;28;20479;-68
2024/01/03 01:41:52;;;;;;;21.30;17.73;;;;;;;;;;5011877;28;20022;-68
2024/01/03 01:44:18;;;;;;;21.17;18.17;;;;;;;;;;5010321;28;20038;-68
2024/01/03 01:46:45;;;;;;;19.50;17.33;;;;;;;;;;5011856;28;20030;-68
2024/01/03 01:49:11;;;;;;;20.27;17.40;;;;;;;;;;5011745;28;20092;-68
2024/01/03 01:51:39;;;;;;;19.50;16.80;;;;;;;;;;5011653;28;20468;-68
2024/01/03 01:54:05;;;;;;;20.87;16.67;;;;;;;;;;5011693;28;20040;-68
2024/01/03 01:56:32;;;;;;;20.02;16.88;;;;;;;;;;5009573;28;20052;-68
2024/01/03 01:58:58;;;;;;;21.47;17.17;;;;;;;;;;5011244;28;20191;-68
2024/01/03 02:10:35;;;;;;;19.33;15.43;;;;;;;;;;4996919;28;20037;-68
2024/01/03 02:13:01;;;;;;;19.08;15.73;;;;;;;;;;5010894;28;20454;-68
2024/01/03 02:15:27;;;;;;;18.70;16.33;;;;;;;;;;5009221;28;20026;-68
2024/01/03 02:17:54;;;;;;;16.85;14.43;;;;;;;;;;5010801;28;20058;-68
2024/01/03 02:20:20;;;;;;;18.35;15.70;;;;;;;;;;5010410;28;20088;-68
2024/01/03 02:22:46;;;;;;;17.83;14.60;;;;;;;;;;4999130;28;20392;-68
2024/01/03 02:25:12;;;;;;;15.75;13.80;;;;;;;;;;5012427;28;20048;-68
2024/01/03 02:27:38;;;;;;;16.85;14.88;;;;;;;;;;5014075;28;20088;-68
2024/01/03 02:30:04;;;;;;;16.67;14.60;;;;;;;;;;5014333;28;20025;-68
2024/01/03 02:32:30;;;;;;;16.63;14.52;;;;;;;;;;5028440;28;20034;-68
2024/01/03 02:34:56;;;;;;;17.77;14.90;;;;;;;;;;5014386;28;20147;-68
2024/01/03 02:37:23;;;;;;;17.50;14.68;;;;;;;;;;5014307;28;20030;-68
2024/01/03 02:39:50;;;;;;;18.30;14.77;;;;;;;;;;5013905;28;20061;-68
2024/01/03 02:42:16;;;;;;;17.75;14.60;;;;;;;;;;5013919;28;20096;-70
2024/01/03 02:44:42;;;;;;;16.13;14.20;;;;;;;;;;5014020;28;20472;-68
2024/01/03 02:47:08;;;;;;;16.45;13.32;;;;;;;;;;5014155;28;20030;-69
2024/01/03 02:49:34;;;;;;;19.13;14.57;;;;;;;;;;5012789;28;20026;-68
2024/01/03 02:52:00;;;;;;;17.75;14.43;;;;;;;;;;5014208;28;20025;-69
2024/01/03 02:54:26;;;;;;;18.27;14.37;;;;;;;;;;5014055;28;20101;-69
2024/01/03 02:56:53;;;;;;;15.93;13.95;;;;;;;;;;5012531;28;20168;-68
2024/01/03 02:59:19;;;;;;;16.10;13.32;;;;;;;;;;5014119;28;20018;-68
2024/01/03 03:01:45;;;;;;;15.75;13.90;;;;;;;;;;5013872;28;20026;-68
2024/01/03 03:04:12;;;;;;;16.92;13.07;;;;;;;;;;5013712;28;20433;-68
2024/01/03 03:06:38;;;;;;;14.88;13.32;;;;;;;;;;5013868;28;20059;-68
2024/01/03 03:09:04;;;;;;;16.48;12.70;;;;;;;;;;5013657;28;20030;-68
2024/01/03 03:11:30;;;;;;;14.80;13.20;;;;;;;;;;5014098;28;20401;-68
2024/01/03 03:13:56;;;;;;;13.70;12.27;;;;;;;;;;5013608;28;20030;-69
2024/01/03 03:16:22;;;;;;;14.70;13.13;;;;;;;;;;5027085;28;20358;-68
2024/01/03 03:18:48;;;;;;;14.38;12.88;;;;;;;;;;5013778;28;20034;-68
2024/01/03 03:21:14;;;;;;;15.32;13.25;;;;;;;;;;5013459;28;20458;-68
2024/01/03 03:23:40;;;;;;;14.88;13.15;;;;;;;;;;5013765;28;20056;-68
2024/01/03 03:26:06;;;;;;;15.75;13.75;;;;;;;;;;5013547;28;20041;-68
2024/01/03 03:28:32;;;;;;;14.75;13.23;;;;;;;;;;5013613;28;20045;-69
2024/01/03 03:30:58;;;;;;;18.02;13.48;;;;;;;;;;5013329;28;20109;-68
2024/01/03 03:33:24;;;;;;;16.80;13.70;;;;;;;;;;5018617;28;20407;-68
2024/01/03 03:35:50;;;;;;;15.20;12.65;;;;;;;;;;5020765;28;20033;-68
2024/01/03 03:38:16;;;;;;;15.00;13.40;;;;;;;;;;5013145;28;20069;-68
2024/01/03 03:40:42;;;;;;;14.88;12.80;;;;;;;;;;5013451;28;20079;-69
2024/01/03 03:43:08;;;;;;;16.88;13.60;;;;;;;;;;5013906;28;20132;-68
2024/01/03 03:45:34;;;;;;;14.15;11.88;;;;;;;;;;5013548;28;20060;-68
2024/01/03 03:48:00;;;;;;;15.85;14.00;;;;;;;;;;5013782;28;20030;-67
2024/01/03 03:50:26;;;;;;;14.38;12.80;;;;;;;;;;5013605;28;20456;-68
2024/01/03 03:52:52;;;;;;;13.82;12.23;;;;;;;;;;5013796;28;20176;-68
2024/01/03 03:55:18;;;;;;;14.82;13.35;;;;;;;;;;5013600;28;20485;-68
2024/01/03 03:57:44;;;;;;;15.50;13.32;;;;;;;;;;5012240;28;20033;-68
2024/01/03 04:00:10;;;;;;;15.55;13.10;;;;;;;;;;5013650;28;20044;-68
2024/01/03 04:02:36;;;;;;;17.83;13.65;;;;;;;;;;5013814;28;20099;-68
2024/01/03 04:05:02;;;;;;;14.57;12.98;;;;;;;;;;5013556;28;20034;-68
2024/01/03 04:07:31;;;;;;;15.15;13.38;;;;;;;;;;5013517;28;20029;-68
2024/01/03 04:09:57;;;;;;;13.98;12.43;;;;;;;;;;5013367;28;20080;-68
2024/01/03 04:12:23;;;;;;;16.67;13.82;;;;;;;;;;5013385;28;20117;-68
2024/01/03 04:14:49;;;;;;;14.27;12.80;;;;;;;;;;5013158;28;20437;-68
2024/01/03 04:17:16;;;;;;;18.33;14.35;;;;;;;;;;5013060;28;20021;-68
2024/01/03 04:19:42;;;;;;;15.88;13.88;;;;;;;;;;5013204;28;20030;-68
2024/01/03 04:22:08;;;;;;;15.80;13.38;;;;;;;;;;5012994;28;20034;-68
2024/01/03 04:24:34;;;;;;;16.63;13.15;;;;;;;;;;5011673;28;20066;-68
2024/01/03 04:27:00;;;;;;;14.75;13.15;;;;;;;;;;5013050;28;20030;-68
2024/01/03 04:29:26;;;;;;;16.70;12.80;;;;;;;;;;5011591;28;20021;-68
2024/01/03 04:31:52;;;;;;;14.73;13.10;;;;;;;;;;5013039;28;20087;-68
2024/01/03 04:34:19;;;;;;;17.10;13.13;;;;;;;;;;5012846;28;20025;-68
2024/01/03 04:36:45;;;;;;;16.23;13.73;;;;;;;;;;5012736;28;20018;-68
2024/01/03 04:39:11;;;;;;;16.23;13.93;;;;;;;;;;5012587;28;20057;-68
2024/01/03 04:41:37;;;;;;;16.70;14.23;;;;;;;;;;5014031;28;20036;-68
2024/01/03 04:44:03;;;;;;;15.70;12.77;;;;;;;;;;5009868;28;20472;-68
2024/01/03 04:46:29;;;;;;;15.85;13.35;;;;;;;;;;5011735;28;20504;-68
2024/01/03 04:48:55;;;;;;;15.88;13.40;;;;;;;;;;4991077;28;20141;-68
2024/01/03 04:51:22;;;;;;;17.30;13.55;;;;;;;;;;5007718;28;20558;-68
2024/01/03 04:53:48;;;;;;;15.52;12.73;;;;;;;;;;5012347;28;20522;-68
2024/01/03 04:56:13;;;;;;;15.17;13.03;;;;;;;;;;5012733;28;20108;-68
2024/01/03 04:58:39;;;;;;;15.97;13.70;;;;;;;;;;5012460;28;20113;-68
2024/01/03 05:01:05;;;;;;;16.88;12.80;;;;;;;;;;5012264;28;20486;-68
2024/01/03 05:03:31;;;;;;;16.55;12.35;;;;;;;;;;5012056;28;20041;-68
2024/01/03 05:05:57;;;;;;;15.57;12.98;;;;;;;;;;5010927;28;20026;-68
2024/01/03 05:08:23;;;;;;;15.25;12.27;;;;;;;;;;5012336;28;20357;-69
2024/01/03 05:10:49;;;;;;;14.68;13.05;;;;;;;;;;5012207;28;20049;-68
2024/01/03 05:13:15;;;;;;;16.88;13.23;;;;;;;;;;5012242;28;20100;-68
2024/01/03 05:15:41;;;;;;;17.13;14.18;;;;;;;;;;5012066;28;20080;-68
2024/01/03 05:18:07;;;;;;;17.70;14.27;;;;;;;;;;5011980;28;20054;-68
2024/01/03 05:20:33;;;;;;;16.35;14.65;;;;;;;;;;5012273;28;20014;-68
2024/01/03 05:22:59;;;;;;;18.25;14.07;;;;;;;;;;5011913;28;20064;-68
2024/01/03 05:25:25;;;;;;;18.85;14.82;;;;;;;;;;5011899;28;20076;-68
2024/01/03 05:27:51;;;;;;;18.25;15.45;;;;;;;;;;5012001;28;20034;-68
2024/01/03 05:30:17;;;;;;;17.58;14.70;;;;;;;;;;5011854;28;20087;-68
2024/01/03 05:32:44;;;;;;;19.43;15.03;;;;;;;;;;5012026;28;20468;-68
2024/01/03 05:35:10;;;;;;;18.38;15.35;;;;;;;;;;5011820;28;20033;-68
2024/01/03 05:37:36;;;;;;;17.52;15.48;;;;;;;;;;5011730;28;20117;-67
2024/01/03 05:40:02;;;;;;;16.58;14.18;;;;;;;;;;5010750;28;20316;-68
2024/01/03 05:42:28;;;;;;;20.08;15.98;;;;;;;;;;5011750;28;20084;-67
2024/01/03 05:44:54;;;;;;;19.15;16.67;;;;;;;;;;5011533;28;20022;-68
2024/01/03 05:47:20;;;;;;;19.92;16.75;;;;;;;;;;5011865;28;20384;-68
2024/01/03 05:49:46;;;;;;;19.10;16.95;;;;;;;;;;5011743;28;20049;-68
2024/01/03 05:52:12;;;;;;;18.45;15.93;;;;;;;;;;5011402;28;20036;-68
2024/01/03 05:54:38;;;;;;;19.23;16.45;;;;;;;;;;5011697;28;20052;-68
2024/01/03 05:57:05;;;;;;;21.05;17.38;;;;;;;;;;5013355;28;20057;-68
2024/01/03 05:59:31;;;;;;;23.02;18.17;;;;;;;;;;5015770;28;20029;-68
2024/01/03 06:01:57;;;;;;;21.23;18.65;;;;;;;;;;5015760;28;20116;-68
2024/01/03 06:04:23;;;;;;;22.38;18.15;;;;;;;;;;5015476;28;20360;-68
2024/01/03 06:06:49;;;;;;;24.17;19.02;;;;;;;;;;5015917;28;20026;-68
2024/01/03 06:09:15;;;;;;;20.58;18.30;;;;;;;;;;5015638;28;20096;-67
2024/01/03 06:11:41;;;;;;;22.75;18.88;;;;;;;;;;5015482;28;20111;-68
2024/01/03 06:14:07;;;;;;;24.70;18.70;;;;;;;;;;5015263;28;20077;-67
2024/01/03 06:16:33;;;;;;;22.10;18.75;;;;;;;;;;5015553;28;20026;-68
2024/01/03 06:18:59;;;;;;;23.43;19.50;;;;;;;;;;5015443;28;20037;-68
2024/01/03 06:21:26;;;;;;;21.57;17.70;;;;;;;;;;5015409;28;20101;-68
2024/01/03 06:23:52;;;;;;;23.37;17.97;;;;;;;;;;5015087;28;20062;-68
2024/01/03 06:26:18;;;;;;;22.05;18.35;;;;;;;;;;5015276;28;20144;-68
2024/01/03 06:28:44;;;;;;;24.60;19.42;;;;;;;;;;5015132;28;20040;-69
2024/01/03 06:31:21;;;;;;;21.38;18.48;;;;;;;;;;5015226;28;20022;-67
2024/01/03 06:33:47;;;;;;;26.70;19.88;;;;;;;;;;5015153;28;20037;-67
2024/01/03 06:36:13;;;;;;;23.60;18.87;;;;;;;;;;5015081;28;20114;-67
2024/01/03 06:38:39;;;;;;;22.58;19.38;;;;;;;;;;5011514;28;20057;-68
2024/01/03 06:41:07;;;;;;;24.08;19.50;;;;;;;;;;5015314;28;20117;-68
2024/01/03 06:43:33;;;;;;;23.48;19.98;;;;;;;;;;5014593;28;20041;-68
2024/01/03 06:45:59;;;;;;;25.10;20.10;;;;;;;;;;5014904;28;20173;-68
2024/01/03 06:48:25;;;;;;;26.08;20.27;;;;;;;;;;5015218;28;20065;-68
2024/01/03 06:50:51;;;;;;;27.08;20.58;;;;;;;;;;5014710;28;20053;-67
2024/01/03 06:53:17;;;;;;;25.65;22.08;;;;;;;;;;5014788;28;20025;-67
2024/01/03 06:55:43;;;;;;;26.63;22.65;;;;;;;;;;5014665;28;20076;-68
2024/01/03 06:58:09;;;;;;;25.90;21.05;;;;;;;;;;5014831;28;20447;-69
2024/01/03 07:00:35;;;;;;;24.52;21.48;;;;;;;;;;5014939;28;20114;-68
2024/01/03 07:03:01;;;;;;;27.13;22.17;;;;;;;;;;5007649;28;20462;-68
2024/01/03 07:05:27;;;;;;;25.60;21.05;;;;;;;;;;5013060;28;20052;-67
2024/01/03 07:07:53;;;;;;;26.90;21.48;;;;;;;;;;5014168;28;20053;-68
2024/01/03 07:10:20;;;;;;;29.40;22.33;;;;;;;;;;5014669;28;20030;-68
2024/01/03 07:12:45;;;;;;;27.08;22.27;;;;;;;;;;5014743;28;20060;-67
2024/01/03 07:15:17;;;;;;;27.03;21.97;;;;;;;;;;5014228;28;20091;-67
2024/01/03 07:17:43;;;;;;;27.90;22.63;;;;;;;;;;5014650;28;20049;-67
2024/01/03 07:20:09;;;;;;;24.17;21.10;;;;;;;;;;5014440;28;20040;-67
2024/01/03 07:22:35;;;;;;;26.52;20.70;;;;;;;;;;5012736;28;20399;-68
2024/01/03 07:25:01;;;;;;;23.93;20.60;;;;;;;;;;5014147;28;20101;-67
2024/01/03 07:27:27;;;;;;;25.17;20.47;;;;;;;;;;5012745;28;20026;-68
2024/01/03 07:29:53;;;;;;;26.48;20.40;;;;;;;;;;5014213;28;20144;-68
2024/01/03 07:32:19;;;;;;;24.52;19.85;;;;;;;;;;5014101;28;20083;-68
2024/01/03 07:34:45;;;;;;;25.00;20.50;;;;;;;;;;5012693;28;20026;-68
2024/01/03 07:37:39;;;;;;;23.73;18.67;;;;;;;;;;5013951;28;20069;-67
2024/01/03 07:40:06;;;;;;;25.20;20.17;;;;;;;;;;5012860;28;20507;-67
2024/01/03 07:42:32;;;;;;;27.10;20.30;;;;;;;;;;5000330;28;20033;-67
2024/01/03 07:44:58;;;;;;;25.53;20.47;;;;;;;;;;5013781;28;20030;-68
2024/01/03 07:47:24;;;;;;;23.67;19.00;;;;;;;;;;5013508;28;20026;-67
2024/01/03 07:49:50;;;;;;;23.98;18.80;;;;;;;;;;5013773;28;20390;-67
2024/01/03 07:52:16;;;;;;;22.42;17.95;;;;;;;;;;5012635;28;20022;-67
2024/01/03 07:54:42;;;;;;;21.80;18.10;;;;;;;;;;5013508;28;20559;-67
2024/01/03 07:57:08;;;;;;;21.45;17.60;;;;;;;;;;5013519;28;20026;-67
2024/01/03 07:59:34;;;;;;;22.50;16.80;;;;;;;;;;5013640;28;20032;-68
2024/01/03 08:02:00;;;;;;;22.73;18.60;;;;;;;;;;5013422;28;20056;-68
2024/01/03 08:04:26;;;;;;;21.98;18.40;;;;;;;;;;5013387;28;20030;-68
2024/01/03 08:06:52;;;;;;;21.58;17.77;;;;;;;;;;5013393;28;20025;-67
2024/01/03 08:09:18;;;;;;;22.33;19.13;;;;;;;;;;5011956;28;20464;-67
2024/01/03 08:11:44;;;;;;;21.53;17.73;;;;;;;;;;5013351;28;20029;-67
2024/01/03 08:14:10;;;;;;;22.30;17.70;;;;;;;;;;5013128;28;20491;-68
2024/01/03 08:16:36;;;;;;;23.07;17.27;;;;;;;;;;5005535;28;20106;-68
2024/01/03 08:19:02;;;;;;;21.13;17.17;;;;;;;;;;5012947;28;20029;-67
2024/01/03 08:21:28;;;;;;;21.13;17.45;;;;;;;;;;5013070;28;20499;-67
2024/01/03 08:23:54;;;;;;;20.08;17.05;;;;;;;;;;5013124;28;20030;-67
2024/01/03 08:26:20;;;;;;;20.85;16.42;;;;;;;;;;5013198;28;20060;-67
2024/01/03 08:28:46;;;;;;;18.43;16.27;;;;;;;;;;5008801;28;20026;-67
2024/01/03 08:31:16;;;;;;;22.05;16.73;;;;;;;;;;5012836;28;20026;-68
2024/01/03 08:33:43;;;;;;;22.00;17.95;;;;;;;;;;5012936;28;20029;-68
2024/01/03 08:36:18;;;;;;;19.23;15.95;;;;;;;;;;5011665;28;20026;-67
2024/01/03 08:38:44;;;;;;;20.60;16.05;;;;;;;;;;5012636;28;20104;-67
2024/01/03 08:41:20;;;;;;;20.45;16.30;;;;;;;;;;5008945;28;20023;-68
2024/01/03 08:43:46;;;;;;;18.50;14.93;;;;;;;;;;5012824;28;20103;-67
2024/01/03 08:46:12;;;;;;;18.45;15.68;;;;;;;;;;5012922;28;20026;-67
2024/01/03 08:48:41;;;;;;;16.17;14.40;;;;;;;;;;5012370;28;20054;-68
2024/01/03 08:51:12;;;;;;;18.77;14.23;;;;;;;;;;5010976;28;20104;-68
2024/01/03 08:53:38;;;;;;;18.60;14.88;;;;;;;;;;5012604;28;20109;-69
2024/01/03 08:56:11;;;;;;;17.07;14.97;;;;;;;;;;5012733;28;20041;-68
2024/01/03 08:58:37;;;;;;;15.82;14.13;;;;;;;;;;5012405;28;20566;-68
2024/01/03 09:01:03;;;;;;;19.65;13.60;;;;;;;;;;5012692;28;20018;-68
2024/01/03 09:03:29;;;;;;;15.60;13.23;;;;;;;;;;5012073;28;20044;-68
2024/01/03 09:05:55;;;;;;;17.65;14.70;;;;;;;;;;5011747;28;20022;-67
2024/01/03 09:08:21;;;;;;;18.88;14.45;;;;;;;;;;5011532;28;20404;-68
2024/01/03 09:10:48;;;;;;;17.73;14.27;;;;;;;;;;5012211;28;20075;-67
2024/01/03 09:13:14;;;;;;;19.73;14.63;;;;;;;;;;5012041;28;20021;-68
2024/01/03 09:15:40;;;;;;;18.10;14.32;;;;;;;;;;5011920;28;20550;-68
2024/01/03 09:18:06;;;;;;;29.00;15.48;;;;;;;;;;5010326;28;20025;-68
2024/01/03 09:20:32;;;;;;;18.90;14.30;;;;;;;;;;5012258;28;20030;-68
2024/01/03 09:22:58;;;;;;;15.38;13.02;;;;;;;;;;4991545;28;20098;-68
2024/01/03 09:25:24;;;;;;;16.63;13.80;;;;;;;;;;5032913;28;20424;-68
2024/01/03 09:27:50;;;;;;;17.80;12.93;;;;;;;;;;5011961;28;20026;-69
2024/01/03 09:30:16;;;;;;;15.38;12.43;;;;;;;;;;5009732;28;20037;-67
2024/01/03 09:32:42;;;;;;;14.70;12.80;;;;;;;;;;5012045;28;20054;-67
2024/01/03 09:35:11;;;;;;;18.85;13.52;;;;;;;;;;5010368;28;20124;-68
2024/01/03 09:37:37;;;;;;;20.30;14.00;;;;;;;;;;5012351;28;20369;-70
2024/01/03 09:40:04;;;;;;;19.27;14.57;;;;;;;;;;5010455;28;20054;-69
2024/01/03 09:42:30;;;;;;;19.45;13.88;;;;;;;;;;5010333;28;20037;-68
2024/01/03 09:44:57;;;;;;;16.90;13.65;;;;;;;;;;5012050;28;20029;-68
2024/01/03 09:47:24;;;;;;;18.15;13.45;;;;;;;;;;5010269;28;20053;-69
2024/01/03 09:49:50;;;;;;;18.05;14.75;;;;;;;;;;5009460;28;20494;-68
2024/01/03 09:52:17;;;;;;;15.95;13.82;;;;;;;;;;5010607;28;20057;-67
2024/01/03 09:54:43;;;;;;;16.42;12.93;;;;;;;;;;5011791;28;20076;-68
2024/01/03 09:57:10;;;;;;;15.93;13.63;;;;;;;;;;5011824;28;20484;-68
2024/01/03 09:59:37;;;;;;;15.38;12.68;;;;;;;;;;4995089;28;20104;-68
2024/01/03 10:02:04;;;;;;;15.50;12.82;;;;;;;;;;4992183;28;20026;-68
2024/01/03 10:04:30;;;;;;;13.68;12.23;;;;;;;;;;4992352;28;20093;-67
2024/01/03 10:06:58;;;;;;;15.23;13.23;;;;;;;;;;4992040;28;20076;-67
2024/01/03 10:09:24;;;;;;;15.35;12.93;;;;;;;;;;4992014;28;20085;-67
2024/01/03 10:11:53;;;;;;;18.98;13.98;;;;;;;;;;4992120;28;20026;-67
2024/01/03 10:14:21;;;;;;;16.38;13.15;;;;;;;;;;5023528;28;20034;-67
2024/01/03 10:16:48;;;;;;;17.25;13.88;;;;;;;;;;5027251;28;20067;-67
2024/01/03 10:19:14;;;;;;;17.10;14.10;;;;;;;;;;5006676;28;20031;-67
2024/01/03 10:21:49;;;;;;;19.17;14.07;;;;;;;;;;4991573;28;20026;-67
2024/01/03 10:24:15;;;;;;;15.20;12.23;;;;;;;;;;5038085;28;20073;-67
2024/01/03 10:26:41;;;;;;;18.00;14.13;;;;;;;;;;5011242;28;20526;-67
2024/01/03 10:29:10;;;;;;;19.38;14.98;;;;;;;;;;5011558;28;20030;-66
2024/01/03 10:31:37;;;;;;;22.33;15.32;;;;;;;;;;5006833;28;20389;-66
2024/01/03 10:34:04;;;;;;;22.52;15.93;;;;;;;;;;4997175;28;20494;-66
2024/01/03 10:36:32;;;;;;;21.02;15.80;;;;;;;;;;5010239;28;20117;-66
2024/01/03 10:38:59;;;;;;;24.95;17.13;;;;;;;;;;5011064;28;20088;-66
2024/01/03 10:41:25;;;;;;;27.27;17.42;;;;;;;;;;5009941;28;20025;-66
2024/01/03 10:43:52;;;;;;;20.55;17.55;;;;;;;;;;5013638;28;20038;-67
2024/01/03 10:46:19;;;;;;;24.30;18.60;;;;;;;;;;5012341;28;20038;-67
2024/01/03 10:48:45;;;;;;;23.65;18.40;;;;;;;;;;5010426;28;20559;-66
2024/01/03 10:51:13;;;;;;;20.17;16.77;;;;;;;;;;4995664;28;20022;-66
2024/01/03 10:53:44;;;;;;;19.85;17.02;;;;;;;;;;5021542;28;20390;-67
2024/01/03 10:56:10;;;;;;;20.45;17.08;;;;;;;;;;4995873;28;20029;-66
2024/01/03 10:58:39;;;;;;;21.02;16.45;;;;;;;;;;5026680;28;20027;-67
2024/01/03 11:01:17;;;;;;;22.70;18.92;;;;;;;;;;4995062;28;20022;-66
2024/01/03 11:03:54;;;;;;;20.48;16.10;;;;;;;;;;5026291;28;20042;-67
2024/01/03 11:06:27;;;;;;;19.73;17.13;;;;;;;;;;4995358;28;20354;-67
2024/01/03 11:09:02;;;;;;;21.85;15.70;;;;;;;;;;4995444;28;20080;-67
2024/01/03 11:11:34;;;;;;;19.13;16.15;;;;;;;;;;4995374;28;20014;-67
2024/01/03 11:14:01;;;;;;;25.15;17.90;;;;;;;;;;4994909;28;20110;-66
2024/01/03 11:16:40;;;;;;;17.73;15.93;;;;;;;;;;5026397;28;20027;-66
2024/01/03 11:19:07;;;;;;;19.50;15.80;;;;;;;;;;4995086;28;20049;-66
2024/01/03 11:21:35;;;;;;;17.27;13.95;;;;;;;;;;4994909;28;20018;-66
2024/01/03 11:24:01;;;;;;;17.30;14.25;;;;;;;;;;4994987;28;20076;-66
2024/01/03 11:26:46;;;;;;;17.00;14.38;;;;;;;;;;5026735;28;20029;-66
2024/01/03 11:29:32;;;;;;;17.58;13.68;;;;;;;;;;4995275;28;20026;-66
2024/01/03 11:31:58;;;;;;;15.95;13.85;;;;;;;;;;5026279;28;20084;-66
2024/01/03 11:34:40;;;;;;;14.77;12.85;;;;;;;;;;4995333;28;20438;-66
2024/01/03 11:37:11;;;;;;;16.83;13.88;;;;;;;;;;5006419;28;20375;-67
2024/01/03 11:39:42;;;;;;;16.80;14.98;;;;;;;;;;5013934;28;20527;-66
2024/01/03 11:42:08;;;;;;;17.00;14.57;;;;;;;;;;5014191;28;20056;-66
2024/01/03 11:44:34;;;;;;;17.15;14.73;;;;;;;;;;5013936;28;20088;-66
2024/01/03 11:47:04;;;;;;;16.30;13.63;;;;;;;;;;5013963;28;20060;-66
2024/01/03 11:49:30;;;;;;;15.38;13.45;;;;;;;;;;5014698;28;20037;-66
2024/01/03 11:51:59;;;;;;;18.95;14.50;;;;;;;;;;5013926;28;20037;-66
2024/01/03 11:54:25;;;;;;;17.23;13.75;;;;;;;;;;5013162;28;20081;-66
2024/01/03 11:56:56;;;;;;;16.88;13.48;;;;;;;;;;5013805;28;20041;-66
2024/01/03 11:59:22;;;;;;;15.35;12.93;;;;;;;;;;5014198;28;20029;-67
2024/01/03 12:01:55;;;;;;;14.20;12.52;;;;;;;;;;5013814;28;20133;-66
2024/01/03 12:04:21;;;;;;;15.73;14.02;;;;;;;;;;5005865;28;20489;-66
2024/01/03 12:06:48;;;;;;;19.17;13.23;;;;;;;;;;4994076;28;20080;-66
2024/01/03 12:09:14;;;;;;;15.02;13.43;;;;;;;;;;4993989;28;20059;-66
2024/01/03 12:11:40;;;;;;;15.98;12.77;;;;;;;;;;4994032;28;20384;-67
2024/01/03 12:14:06;;;;;;;15.07;12.82;;;;;;;;;;4994014;28;20034;-66
2024/01/03 12:16:32;;;;;;;14.73;12.68;;;;;;;;;;4993849;28;20030;-66
2024/01/03 12:18:58;;;;;;;16.40;11.80;;;;;;;;;;4993784;28;20034;-66
2024/01/03 12:21:24;;;;;;;15.85;12.68;;;;;;;;;;5025258;28;20525;-66
2024/01/03 12:23:59;;;;;;;13.07;11.70;;;;;;;;;;4993706;28;20038;-66
2024/01/03 12:26:25;;;;;;;13.48;11.80;;;;;;;;;;4993689;28;20139;-67
2024/01/03 12:28:54;;;;;;;14.63;11.38;;;;;;;;;;4993685;28;20113;-67
2024/01/03 12:31:20;;;;;;;16.75;13.52;;;;;;;;;;5025003;28;20022;-67
2024/01/03 12:33:46;;;;;;;14.52;12.35;;;;;;;;;;4994398;28;20499;-67
2024/01/03 12:36:13;;;;;;;14.60;11.88;;;;;;;;;;5013362;28;20069;-67
2024/01/03 12:38:40;;;;;;;14.20;12.05;;;;;;;;;;5013032;28;20037;-67
2024/01/03 12:41:06;;;;;;;19.67;14.20;;;;;;;;;;5013224;28;20104;-67
2024/01/03 12:43:35;;;;;;;18.25;12.98;;;;;;;;;;5012805;28;20050;-67
2024/01/03 12:46:01;;;;;;;16.83;13.13;;;;;;;;;;5012626;28;20088;-67
2024/01/03 12:48:27;;;;;;;15.55;11.85;;;;;;;;;;5012753;28;20030;-67
2024/01/03 12:50:53;;;;;;;12.05;10.70;;;;;;;;;;5012835;28;20025;-67
2024/01/03 12:53:19;;;;;;;15.88;11.23;;;;;;;;;;5012620;28;20030;-66
2024/01/03 12:55:47;;;;;;;14.80;12.00;;;;;;;;;;5012669;28;20084;-66
2024/01/03 12:58:13;;;;;;;17.70;11.68;;;;;;;;;;5012792;28;20038;-67
2024/01/03 13:00:39;;;;;;;14.40;10.88;;;;;;;;;;5012683;28;20057;-66
2024/01/03 13:03:05;;;;;;;13.25;11.48;;;;;;;;;;5012681;28;20044;-66
2024/01/03 13:05:31;;;;;;;14.57;11.35;;;;;;;;;;5010867;28;20429;-66
2024/01/03 13:07:57;;;;;;;15.30;10.93;;;;;;;;;;5012266;28;20036;-66
2024/01/03 13:10:23;;;;;;;11.70;10.13;;;;;;;;;;4995863;28;20050;-66
2024/01/03 13:12:50;;;;;;;14.18;10.77;;;;;;;;;;4992868;28;20037;-66
2024/01/03 13:15:16;;;;;;;12.50;10.38;;;;;;;;;;4992673;28;20518;-66
2024/01/03 13:17:42;;;;;;;12.18;10.63;;;;;;;;;;4992886;28;20097;-66
2024/01/03 13:20:08;;;;;;;14.68;9.73;;;;;;;;;;4992846;28;20030;-66
2024/01/03 13:22:34;;;;;;;13.07;9.68;;;;;;;;;;4992528;28;20031;-66
2024/01/03 13:25:00;;;;;;;12.85;9.65;;;;;;;;;;4992593;28;20026;-65
2024/01/03 13:27:26;;;;;;;9.60;8.38;;;;;;;;;;4992515;28;20120;-67
2024/01/03 13:29:52;;;;;;;14.55;9.15;;;;;;;;;;4992545;28;20349;-66
2024/01/03 13:32:18;;;;;;;11.93;9.38;;;;;;;;;;5010207;28;20034;-63
2024/01/03 13:34:44;;;;;;;12.20;8.23;;;;;;;;;;5011348;28;20032;-64
2024/01/03 13:37:10;;;;;;;11.98;8.10;;;;;;;;;;5010507;28;20116;-63
2024/01/03 13:39:37;;;;;;;11.20;8.32;;;;;;;;;;5009418;28;20053;-65
2024/01/03 13:42:03;;;;;;;10.70;9.07;;;;;;;;;;5009623;28;20466;-66
2024/01/03 13:44:29;;;;;;;14.65;9.02;;;;;;;;;;5010295;28;20484;-66
2024/01/03 13:46:56;;;;;;;10.90;9.02;;;;;;;;;;5001852;28;20027;-66
2024/01/03 13:49:22;;;;;;;11.27;8.55;;;;;;;;;;5005037;28;20033;-66
2024/01/03 13:51:51;;;;;;;10.63;9.48;;;;;;;;;;5007534;28;20109;-65
2024/01/03 13:54:18;;;;;;;10.48;8.65;;;;;;;;;;5010816;28;20153;-65
2024/01/03 13:56:45;;;;;;;11.60;8.25;;;;;;;;;;5010024;28;20025;-66
2024/01/03 13:59:11;;;;;;;11.68;8.25;;;;;;;;;;5011798;28;20037;-65
2024/01/03 14:01:38;;;;;;;11.65;7.50;;;;;;;;;;5011593;28;20149;-66
2024/01/03 14:04:04;;;;;;;8.77;6.43;;;;;;;;;;5011145;28;20103;-65
2024/01/03 14:06:30;;;;;;;9.10;7.07;;;;;;;;;;5010128;28;20023;-65
2024/01/03 14:08:56;;;;;;;6.25;5.57;;;;;;;;;;5011196;28;20491;-65
2024/01/03 14:11:23;;;;;;;9.07;6.50;;;;;;;;;;4992404;28;20030;-65
2024/01/03 14:13:49;;;;;;;10.32;6.18;;;;;;;;;;5010722;28;20022;-67
2024/01/03 14:16:16;;;;;;;11.43;5.70;;;;;;;;;;5011405;28;20054;-66
2024/01/03 14:18:42;;;;;;;7.35;5.38;;;;;;;;;;5013699;28;20029;-66
2024/01/03 14:21:08;;;;;;;9.73;5.93;;;;;;;;;;5015050;28;20034;-64
2024/01/03 14:23:37;;;;;;;7.38;5.43;;;;;;;;;;5014473;28;20124;-63
2024/01/03 14:26:09;;;;;;;8.05;6.05;;;;;;;;;;5014457;28;20025;-63